Latest Weather Observations for Scherger

IDQ60801

Issued at 11:02 pm EST Friday 15 November 2019 (issued every 10 minutes, with the page automatically refreshed every 10 minutes)

About weather observations | Map of weather stations | Latest weather observations for QLD | Other Formats
Station Details ID: 027075 Name: SCHERGER RAAF Lat: -12.62 Lon: 142.09 Height: 39.34 m
Data from the previous 72 hours. | See also: Recent months at Scherger
Date/Time
EST
Temp
°C
App
Temp
°C
Dew
Point
°C
Rel
Hum
%
Delta-T
°C
Wind Press
QNH
hPa
Press
MSL
hPa
Rain since
9am
mm
Dir  Spd
km/h
Gust
km/h
Spd
kts
Gust
kts
15/11:00pm 26.0 28.8 17.9 61 5.1 CALM 0 0 0 0 1012.1 1011.8 0.0
15/10:30pm 26.5 28.8 17.8 58 5.5 E 2 6 1 3 1012.1 1011.8 0.0
15/10:00pm 27.0 28.5 18.0 58 5.7 E 7 13 4 7 1012.1 1011.8 0.0
15/09:30pm 27.1 29.7 19.2 62 5.1 SSE 4 7 2 4 1012.0 1011.7 0.0
15/09:00pm 27.4 31.1 20.0 64 4.8 CALM 0 0 0 0 1011.8 1011.5 0.0
15/08:30pm 27.8 31.4 19.8 61 5.2 CALM 0 4 0 2 1011.5 1011.2 0.0
15/08:00pm 28.1 30.5 19.6 60 5.5 SSE 6 7 3 4 1011.2 1010.9 0.0
15/07:30pm 28.6 31.5 19.8 59 5.8 S 4 7 2 4 1010.5 1010.2 0.0
15/07:00pm 29.0 31.0 19.9 58 6.0 WSW 9 15 5 8 1009.9 1009.6 0.0
15/06:30pm 29.6 31.4 19.6 55 6.5 WSW 9 19 5 10 1009.2 1008.9 0.0
15/06:00pm 30.6 32.4 19.6 51 7.2 WSW 9 17 5 9 1008.5 1008.2 0.0
15/05:30pm 31.5 32.1 19.5 49 7.9 WSW 15 24 8 13 1008.0 1007.7 0.0
15/05:00pm 32.7 33.9 19.9 46 8.5 WSW 13 26 7 14 1007.6 1007.3 0.0
15/04:30pm 33.1 33.2 19.2 43 9.1 W 17 26 9 14 1007.4 1007.1 0.0
15/04:00pm 36.8 36.0 11.6 22 15.1 E 7 17 4 9 1007.2 1006.9 0.0
15/03:30pm 36.6 35.9 11.4 22 15.0 SSW 6 11 3 6 1007.4 1007.1 0.0
15/03:00pm 36.3 35.0 11.2 22 14.9 NE 9 20 5 11 1007.7 1007.4 0.0
15/02:30pm 35.4 34.6 11.7 23 14.1 E 7 15 4 8 1008.1 1007.8 0.0
15/02:00pm 35.4 34.1 12.4 25 13.9 ESE 11 20 6 11 1008.4 1008.1 0.0
15/01:30pm 35.8 34.4 12.1 24 14.2 ENE 11 20 6 11 1008.9 1008.6 0.0
15/01:00pm 34.6 33.6 12.3 26 13.4 E 9 17 5 9 1009.5 1009.2 0.0
15/12:30pm 34.8 34.0 14.1 28 12.7 ENE 11 24 6 13 1010.2 1009.9 0.0
15/12:00pm 34.0 33.9 15.0 32 11.8 ENE 9 20 5 11 1010.6 1010.3 0.0
15/11:30am 32.5 32.4 15.9 36 10.4 E 11 20 6 11 1011.1 1010.8 0.0
15/11:00am 31.5 32.3 17.4 43 9.0 E 9 17 5 9 1011.5 1011.2 0.0
15/10:30am 30.5 31.1 17.6 46 8.2 E 11 19 6 10 1011.8 1011.5 0.0
15/10:00am 29.0 30.0 17.8 50 7.1 ENE 9 13 5 7 1012.1 1011.8 0.0
15/09:30am 28.0 28.1 17.5 52 6.6 E 13 24 7 13 1012.5 1012.2 0.0
15/09:00am 28.1 28.4 18.8 57 6.0 E 15 24 8 13 1012.3 1012.0 0.0
15/08:30am 27.1 28.2 19.7 64 4.8 E 13 20 7 11 1012.0 1011.7 0.0
15/08:00am 26.4 27.9 19.8 67 4.3 ENE 11 22 6 12 1011.7 1011.4 0.0
15/07:30am 25.4 27.5 20.2 73 3.4 ENE 9 17 5 9 1011.4 1011.1 0.0
15/07:00am 24.4 26.9 20.3 78 2.7 ENE 7 11 4 6 1011.1 1010.8 0.0
15/06:30am 23.1 26.5 20.1 83 1.9 ENE 2 6 1 3 1010.6 1010.3 0.0
15/06:00am 22.5 26.1 19.7 84 1.8 CALM 0 6 0 3 1010.3 1010.0 0.0
15/05:30am 22.5 25.3 19.7 84 1.8 ENE 4 7 2 4 1010.0 1009.7 0.0
15/05:00am 22.6 26.1 19.6 83 1.9 CALM 0 0 0 0 1009.8 1009.5 0.0
15/04:30am 22.7 26.3 19.7 83 1.9 CALM 0 0 0 0 1009.8 1009.5 0.0
15/04:00am 23.1 26.7 19.7 81 2.2 CALM 0 6 0 3 1009.7 1009.4 0.0
15/03:30am 23.2 26.8 19.8 81 2.2 CALM 0 6 0 3 1009.5 1009.2 0.0
15/03:00am 23.4 27.0 19.8 80 2.3 CALM 0 0 0 0 1009.2 1008.9 0.0
15/02:30am 23.8 26.6 19.7 78 2.6 ENE 4 9 2 5 1009.4 1009.1 0.0
15/02:00am 24.3 27.2 19.8 76 2.9 ENE 4 9 2 5 1009.7 1009.4 0.0
15/01:30am 24.7 26.6 19.8 74 3.2 NE 9 17 5 9 1009.9 1009.6 0.0
15/01:00am 25.1 26.9 19.5 71 3.6 NE 9 15 5 8 1010.2 1009.9 0.0
15/12:30am 25.7 27.2 18.9 66 4.4 NNE 9 17 5 9 1010.6 1010.3 0.0
15/12:00am 26.4 28.1 18.5 62 5.0 NNE 7 11 4 6 1010.8 1010.5 0.0
 
Date/Time
EST
Temp
°C
App
Temp
°C
Dew
Point
°C
Rel
Hum
%
Delta-T
°C
Wind Press
QNH
hPa
Press
MSL
hPa
Rain since
9am
mm
Dir  Spd
km/h
Gust
km/h
Spd
kts
Gust
kts
14/11:30pm 27.1 29.0 18.9 61 5.3 NE 7 11 4 6 1011.0 1010.7 0.0
14/11:00pm 27.5 30.8 21.5 70 4.0 N 6 13 3 7 1011.0 1010.7 0.0
14/10:30pm 27.1 32.4 23.1 79 2.7 CALM 0 0 0 0 1010.8 1010.5 0.0
14/10:00pm 27.3 32.5 22.9 77 3.0 CALM 0 0 0 0 1010.6 1010.3 0.0
14/09:30pm 27.6 32.8 22.8 75 3.3 CALM 0 6 0 3 1010.4 1010.1 0.0
14/09:00pm 27.9 33.1 22.8 74 3.5 CALM 0 0 0 0 1009.9 1009.6 0.0
14/08:30pm 28.0 33.0 22.5 72 3.7 CALM 0 0 0 0 1009.6 1009.3 0.0
14/08:00pm 28.2 31.6 21.7 68 4.4 NNW 6 11 3 6 1009.2 1008.9 0.0
14/07:30pm 28.9 33.3 21.4 64 5.0 CALM 0 4 0 2 1008.3 1008.0 0.0
14/07:00pm 29.5 32.7 21.2 61 5.6 W 6 11 3 6 1007.4 1007.1 0.0
14/06:30pm 30.3 32.7 20.8 56 6.3 WSW 9 15 5 8 1007.1 1006.8 0.0
14/06:00pm 31.3 33.9 21.2 55 6.8 WSW 9 19 5 10 1006.8 1006.5 0.0
14/05:30pm 31.9 33.0 20.5 51 7.6 WSW 15 22 8 12 1006.6 1006.3 0.0
14/05:00pm 32.7 33.7 20.2 47 8.3 WSW 15 24 8 13 1006.4 1006.1 0.0
14/04:30pm 33.5 33.9 19.9 44 9.0 W 17 24 9 13 1006.4 1006.1 0.0
14/04:00pm 35.4 36.5 18.9 37 10.9 WSW 11 17 6 9 1006.3 1006.0 0.0
14/03:30pm 34.9 36.2 18.5 38 10.7 WSW 9 20 5 11 1006.7 1006.4 0.0
14/03:00pm 36.0 36.9 16.7 31 12.4 SSE 7 20 4 11 1007.3 1007.0 0.0
14/02:30pm 35.5 35.5 15.3 30 12.7 S 9 15 5 8 1007.8 1007.5 0.0
14/02:00pm 34.5 34.2 15.4 32 12.0 SSW 11 17 6 9 1008.5 1008.2 0.0
14/01:30pm 34.7 35.2 16.5 33 11.6 S 9 17 5 9 1009.2 1008.9 0.0
14/01:00pm 33.8 34.2 15.3 33 11.5 ESE 7 13 4 7 1009.9 1009.6 0.0
14/12:30pm 33.3 33.8 16.6 36 10.6 SSE 9 20 5 11 1010.7 1010.4 0.0
14/12:00pm 33.3 33.6 17.1 38 10.4 SW 11 20 6 11 1011.4 1011.1 0.0
14/11:30am 32.0 32.2 16.7 40 9.7 S 11 19 6 10 1011.7 1011.4 0.0
14/11:00am 31.5 32.5 17.8 44 8.8 ESE 9 20 5 11 1012.2 1011.9 0.0
14/10:30am 30.6 32.5 19.0 50 7.5 S 7 17 4 9 1012.7 1012.4 0.0
14/10:00am 29.8 32.0 19.2 53 6.9 E 6 11 3 6 1013.0 1012.7 0.0
14/09:30am 29.1 31.3 19.1 54 6.5 ENE 6 11 3 6 1012.9 1012.6 0.0
14/09:00am 28.4 30.1 19.3 57 5.9 ENE 9 15 5 8 1012.8 1012.5 0.0
14/08:30am 27.5 29.6 20.1 64 4.8 ENE 9 13 5 7 1012.9 1012.6 0.0
14/08:00am 26.3 28.4 20.2 69 4.0 ENE 9 15 5 8 1012.7 1012.4 0.0
14/07:30am 25.6 29.2 20.6 74 3.3 NE 2 7 1 4 1012.7 1012.4 0.0
14/07:00am 24.2 27.9 20.7 81 2.3 NE 2 11 1 6 1012.3 1012.0 0.0
14/06:30am 23.0 27.0 20.5 86 1.6 CALM 0 0 0 0 1011.8 1011.5 0.0
14/06:00am 22.6 26.4 20.1 86 1.6 CALM 0 0 0 0 1011.4 1011.1 0.0
14/05:30am 22.9 26.7 20.1 84 1.8 CALM 0 0 0 0 1011.1 1010.8 0.0
14/05:00am 22.9 26.6 19.9 83 1.9 CALM 0 0 0 0 1011.0 1010.7 0.0
14/04:30am 23.1 26.9 20.1 83 1.9 CALM 0 0 0 0 1010.9 1010.6 0.0
14/04:00am 23.1 26.9 20.1 83 1.9 CALM 0 0 0 0 1010.8 1010.5 0.0
14/03:30am 23.3 27.1 20.1 82 2.1 CALM 0 0 0 0 1010.8 1010.5 0.0
14/03:00am 23.4 27.0 19.8 80 2.3 CALM 0 0 0 0 1010.9 1010.6 0.0
14/02:30am 23.7 27.3 19.8 79 2.5 CALM 0 0 0 0 1011.1 1010.8 0.0
14/02:00am 24.0 27.6 19.7 77 2.8 CALM 0 0 0 0 1011.2 1010.9 0.0
14/01:30am 24.4 26.9 19.9 76 2.9 NNE 6 7 3 4 1011.5 1011.2 0.0
14/01:00am 24.6 27.0 19.7 74 3.2 NNE 6 11 3 6 1011.8 1011.5 0.0
14/12:30am 24.9 27.5 19.3 71 3.6 NE 4 7 2 4 1012.2 1011.9 0.0
14/12:00am 25.1 28.4 19.2 70 3.8 CALM 0 0 0 0 1012.5 1012.2 0.0
 
Date/Time
EST
Temp
°C
App
Temp
°C
Dew
Point
°C
Rel
Hum
%
Delta-T
°C
Wind Press
QNH
hPa
Press
MSL
hPa
Rain since
9am
mm
Dir  Spd
km/h
Gust
km/h
Spd
kts
Gust
kts
13/11:30pm 25.5 28.6 18.7 66 4.3 CALM 0 0 0 0 1012.8 1012.5 0.0
13/11:00pm 26.1 28.9 18.8 64 4.7 ENE 2 9 1 5 1013.0 1012.7 0.0
13/10:30pm 26.6 28.3 18.5 61 5.2 NE 7 11 4 6 1013.1 1012.8 0.0
13/10:00pm 27.1 30.3 20.4 66 4.4 NE 4 9 2 5 1013.0 1012.7 0.0
13/09:30pm 27.0 31.0 21.3 71 3.8 N 2 6 1 3 1012.9 1012.6 0.0
13/09:00pm 27.2 31.4 21.0 69 4.1 CALM 0 0 0 0 1012.4 1012.1 0.0
13/08:30pm 27.4 31.6 21.0 68 4.2 CALM 0 6 0 3 1012.1 1011.8 0.0
13/08:00pm 27.8 31.6 20.9 66 4.6 NNE 2 6 1 3 1011.5 1011.2 0.0
13/07:30pm 28.1 31.1 20.9 65 4.8 WNW 6 11 3 6 1011.0 1010.7 0.0
13/07:00pm 28.5 30.7 20.5 62 5.3 W 9 15 5 8 1010.3 1010.0 0.0
13/06:30pm 29.2 30.8 19.2 54 6.5 WNW 9 15 5 8 1009.7 1009.4 0.0
13/06:00pm 30.7 32.5 18.8 49 7.7 W 7 13 4 7 1009.0 1008.7 0.0
13/05:30pm 31.6 31.5 17.9 44 8.8 W 15 22 8 12 1008.2 1007.9 0.0
13/05:00pm 36.3 35.9 13.1 25 14.2 NNE 7 15 4 8 1007.7 1007.4 0.0
13/04:30pm 37.0 35.3 12.4 23 14.9 SE 13 26 7 14 1007.5 1007.2 0.0
13/04:00pm 37.4 36.5 11.4 21 15.6 SSW 7 15 4 8 1007.8 1007.5 0.0
13/03:30pm 36.9 35.7 11.7 22 15.1 SE 9 19 5 10 1007.9 1007.6 0.0
13/03:00pm 35.7 34.8 11.4 23 14.4 SSE 7 13 4 7 1008.3 1008.0 0.0
13/02:30pm 36.3 35.8 12.5 24 14.4 SSE 7 15 4 8 1008.8 1008.5 0.0
13/02:00pm 35.2 34.7 12.2 25 13.8 S 6 17 3 9 1009.3 1009.0 0.0
13/01:30pm 34.5 32.9 12.8 27 13.1 E 13 22 7 12 1009.9 1009.6 0.0
13/01:00pm 34.5 34.0 13.9 29 12.6 SE 9 17 5 9 1010.4 1010.1 0.0
13/12:30pm 33.3 31.5 13.4 30 12.0 ESE 15 22 8 12 1011.2 1010.9 0.0
13/12:00pm 32.9 31.6 12.5 29 12.2 ESE 11 19 6 10 1011.8 1011.5 0.0
13/11:30am 32.3 32.3 15.3 35 10.5 SE 9 24 5 13 1012.5 1012.2 0.0
13/11:00am 31.0 30.6 16.2 41 9.3 ESE 13 20 7 11 1013.0 1012.7 0.0
13/10:30am 30.0 29.8 16.8 45 8.3 SE 13 20 7 11 1013.5 1013.2 0.0
13/10:00am 28.9 29.0 17.4 49 7.3 ESE 13 20 7 11 1013.7 1013.4 0.0
13/09:30am 28.4 29.3 18.5 55 6.4 E 11 22 6 12 1014.1 1013.8 0.0
13/09:00am 27.6 28.3 18.9 59 5.6 E 13 20 7 11 1014.2 1013.9 0.0
13/08:30am 26.4 27.1 18.8 63 4.9 SSE 13 20 7 11 1014.3 1014.0 0.0
13/08:00am 25.7 27.0 19.3 67 4.1 SSE 11 17 6 9 1014.4 1014.1 0.0
13/07:30am 24.3 25.9 19.1 73 3.3 SSE 9 17 5 9 1014.5 1014.2 0.0
13/07:00am 22.8 24.3 18.8 78 2.5 SSE 9 11 5 6 1014.1 1013.8 0.0
13/06:30am 22.0 24.5 19.0 83 1.9 SSE 4 9 2 5 1013.9 1013.6 0.0
13/06:00am 21.6 24.8 18.8 84 1.8 CALM 0 7 0 4 1013.7 1013.4 0.0
13/05:30am 21.6 24.7 18.6 83 1.9 CALM 0 0 0 0 1013.5 1013.2 0.0
13/05:00am 21.7 24.8 18.7 83 1.9 CALM 0 0 0 0 1013.2 1012.9 0.0
13/04:30am 21.9 25.0 18.7 82 2.0 CALM 0 0 0 0 1013.1 1012.8 0.0
13/04:00am 21.8 24.9 18.6 82 2.0 CALM 0 0 0 0 1012.9 1012.6 0.0
13/03:30am 21.9 25.0 18.7 82 2.0 CALM 0 4 0 2 1012.8 1012.5 0.0
13/03:00am 22.1 25.3 18.9 82 2.0 CALM 0 0 0 0 1012.8 1012.5 0.0
13/02:30am 22.6 25.8 18.8 79 2.4 CALM 0 0 0 0 1013.0 1012.7 0.0
13/02:00am 22.2 25.5 19.0 82 2.0 CALM 0 0 0 0 1013.0 1012.7 0.0
13/01:30am 22.5 25.7 18.9 80 2.3 CALM 0 0 0 0 1013.4 1013.1 0.0
13/01:00am 22.8 26.0 18.8 78 2.5 CALM 0 0 0 0 1013.6 1013.3 0.0
13/12:30am 23.2 26.3 18.7 76 2.8 CALM 0 0 0 0 1013.8 1013.5 0.0
13/12:00am 23.4 26.3 18.3 73 3.2 CALM 0 0 0 0 1014.2 1013.9 0.0
 
Date/Time
EST
Temp
°C
App
Temp
°C
Dew
Point
°C
Rel
Hum
%
Delta-T
°C
Wind Press
QNH
hPa
Press
MSL
hPa
Rain since
9am
mm
Dir  Spd
km/h
Gust
km/h
Spd
kts
Gust
kts
12/11:30pm 24.0 26.9 18.2 70 3.7 CALM 0 0 0 0 1014.4 1014.1 0.0

Other formats

Comma delimited format used in spreadsheet applications
http://www.bom.gov.au/fwo/IDQ60801/IDQ60801.94171.axf

JavaScript Object Notation format (JSON) in row-major order
http://www.bom.gov.au/fwo/IDQ60801/IDQ60801.94171.json

Data quality

Most of these data are generated automatically and are frequently updated. Quality checks on data are not normally performed. It is possible for incorrect values to appear. Refer to information at About Latest Weather Observations and please check the disclaimer before using these data.